Terminal Aerodrome Forecast
Issued by NWS

Home | Current Version | Previous Version | Text Only | Print | Product List | Glossary On
Versions: 1 2 3 4 5 6 7 8 9 10 11 12 13 14 15 16 17 18 19 20 21 22 23 24 25 26 27 28 29
000
FTUS44 KLZK 170802 AAA
TAFLIT
TAF AMD
KLIT 170802Z 1708/1806 19007KT P6SM SCT040 OVC100
      TEMPO 1708/1710 BKN010
     FM171000 21011KT P6SM VCTS OVC050CB
      TEMPO 1711/1715 4SM TSRA BR OVC025CB
     FM172000 24004KT P6SM BKN250=

USA.gov is the U.S. government's official web portal to all federal, state and local government web resources and services.